気象予報士の航空気象 煙霧発生

*All archives   *Admin

2013.03.10 (Sun)

煙霧発生

RJTT 100504Z 28025G37KT 240V360 8000 SA FEW030 SCT/// 24/07 Q0997 RMK 1CU030 A2946 2500N-E YELLOW SAND P/RR

当初、黄砂と解析していましたが、煙霧と判断されたようです。
地上の塵や埃、土などが舞い上がり、視程障害を現象です。
昨日までに降り積もった黄砂が舞い上がっているわけなので、黄砂と言えば黄砂も関係はしています。

RJTT 100538Z 34020KT 3500 BLDU FEW020 SCT030 BKN100 16/03 Q0999 RMK 1CU020 3CU030 5AC100 A2952

BLDU 舞い上がった塵や埃

気流も悪く、乱気流もそこらじゅうの空域で起こっているようです。
スポンサーサイト
15:27  |  気象・天気  |  TB(0)  |  CM(2)  |  EDIT  |  Top↑

★はじめまして

こんにちは。
航空気象について検索をかけていたら
このブログを見つけました。
気象を勉強中なので、また来ると思います。
それでは、また。
FSA |  2013年03月31日(日) 19:44 | URL 【コメント編集】

★こんにちは

最近、更新スピードが遅く、またしっかり解析していませんが、できる限りやるつもりです。
また来てください。
瑞翔 |  2013年04月06日(土) 16:54 | URL 【コメント編集】

コメントを投稿する


 管理者だけに表示  (非公開コメント投稿可能)

▲PageTop

この記事のトラックバックURL

→http://weathereucalyptus.blog115.fc2.com/tb.php/628-8175d473
この記事にトラックバックする(FC2ブログユーザー)

この記事へのトラックバック

▲PageTop

 | BLOGTOP |